Time;durP1;ratioP1;P1;durP2;ratioP2;P2;SDS_P1;SDS_P2;PMS_P1;PMS_P2;Temp;Humidity;BMP_temperature;BMP_pressure;BME280_temperature;BME280_humidity;BME280_pressure;Samples;Min_cycle;Max_cycle;Signal;HPM_P1;HPM_P2
2021/12/17 00:00:16;;;;;;;34.67;21.65;;;;;;;6.38;100.00;103796.00;2107472;28;20013;-69
2021/12/17 00:01:17;;;;;;;35.03;22.80;;;;;;;6.39;100.00;103792.56;2107493;28;20073;-69
2021/12/17 00:03:52;;;;;;;36.63;23.88;;;;;;;6.39;100.00;103787.38;2081658;28;20025;-67
2021/12/17 00:05:09;;;;;;;35.90;24.88;;;;;;;6.41;100.00;103790.88;2100202;28;20193;-67
2021/12/17 00:06:17;;;;;;;38.78;25.27;;;;;;;6.41;100.00;103780.50;2107490;28;20056;-68
2021/12/17 00:07:20;;;;;;;39.92;24.17;;;;;;;6.42;100.00;103779.66;2107426;28;20508;-68
2021/12/17 00:08:22;;;;;;;36.22;26.52;;;;;;;6.42;100.00;103787.44;2098404;28;20029;-68
2021/12/17 00:09:23;;;;;;;36.28;25.52;;;;;;;6.43;100.00;103784.00;2098333;28;20075;-68
2021/12/17 00:10:23;;;;;;;40.13;26.40;;;;;;;6.43;100.00;103783.09;2106859;28;20035;-68
2021/12/17 00:11:24;;;;;;;40.73;26.63;;;;;;;6.46;100.00;103787.53;2107413;28;20082;-69
2021/12/17 00:12:26;;;;;;;41.05;26.55;;;;;;;6.48;100.00;103788.41;2107350;28;20076;-67
2021/12/17 00:13:27;;;;;;;38.65;25.90;;;;;;;6.48;100.00;103785.81;2107348;28;20103;-68
2021/12/17 00:14:29;;;;;;;33.17;23.73;;;;;;;6.48;100.00;103793.59;2107414;28;20422;-70
2021/12/17 00:15:29;;;;;;;32.40;23.27;;;;;;;6.47;100.00;103789.25;2107348;28;20020;-68
2021/12/17 00:16:36;;;;;;;39.00;25.83;;;;;;;6.46;100.00;103785.78;2098552;28;20029;-67
2021/12/17 00:17:46;;;;;;;37.92;24.70;;;;;;;6.47;100.00;103786.66;2099238;28;20107;-67
2021/12/17 00:19:16;;;;;;;36.35;25.05;;;;;;;6.48;100.00;103783.22;2098249;28;20024;-67
2021/12/17 00:20:43;;;;;;;39.03;24.58;;;;;;;6.51;100.00;103780.69;2093991;28;20512;-67
2021/12/17 00:40:34;;;;;;;40.38;26.05;;;;;;;6.52;100.00;103767.75;2107246;28;20021;-69
2021/12/17 00:48:24;;;;;;;36.50;24.67;;;;;;;6.58;100.00;103772.22;2107279;28;20036;-67
2021/12/17 00:49:13;;;;;;;39.17;25.48;;;;;;;6.63;100.00;103767.09;2107092;28;20035;-69
2021/12/17 00:52:51;;;;;;;34.95;23.17;;;;;;;6.64;100.00;103777.50;2107120;28;20020;-68
2021/12/17 00:53:53;;;;;;;38.23;25.20;;;;;;;6.63;100.00;103773.19;2107096;28;20024;-69
2021/12/17 00:54:53;;;;;;;;;;;;;;;6.63;100.00;103770.59;2107474;28;20390;-68
2021/12/17 00:55:54;;;;;;;34.55;22.60;;;;;;;6.60;100.00;103770.50;2107100;28;19920;-68
2021/12/17 00:56:55;;;;;;;36.60;24.38;;;;;;;6.59;100.00;103768.78;2097990;28;20038;-68
2021/12/17 00:57:56;;;;;;;40.83;26.23;;;;;;;6.58;100.00;103767.03;2098214;28;20024;-67
2021/12/17 00:58:56;;;;;;;38.97;26.37;;;;;;;6.59;100.00;103773.97;2106996;28;20114;-67
2021/12/17 00:59:56;;;;;;;37.27;24.97;;;;;;;6.61;100.00;103777.47;2106974;28;20020;-67
2021/12/17 01:00:57;;;;;;;37.57;25.10;;;;;;;6.63;100.00;103765.41;2106960;28;20020;-67
2021/12/17 01:02:02;;;;;;;41.17;26.10;;;;;;;6.65;100.00;103768.03;2097953;28;20174;-68
2021/12/17 01:03:03;;;;;;;39.15;27.13;;;;;;;6.65;100.00;103768.91;2098665;28;20033;-68
2021/12/17 01:04:03;;;;;;;42.55;27.85;;;;;;;6.66;100.00;103769.78;2107012;28;20465;-68
2021/12/17 01:05:08;;;;;;;42.42;28.35;;;;;;;6.65;100.00;103763.72;2097918;28;20028;-69
2021/12/17 01:06:08;;;;;;;41.38;26.17;;;;;;;6.67;100.00;103767.22;2098431;28;20103;-68
2021/12/17 01:07:12;;;;;;;41.80;27.52;;;;;;;6.69;100.00;103765.53;2106956;28;20088;-68
2021/12/17 01:08:13;;;;;;;38.83;25.80;;;;;;;6.69;100.00;103770.72;2106995;28;20115;-68
2021/12/17 01:09:16;;;;;;;35.40;25.10;;;;;;;6.68;100.00;103768.94;2107934;28;20035;-68
2021/12/17 01:10:21;;;;;;;40.67;25.90;;;;;;;6.68;100.00;103763.75;2107301;28;20024;-67
2021/12/17 01:11:23;;;;;;;39.50;26.73;;;;;;;6.69;100.00;103760.34;2107086;28;20032;-68
2021/12/17 01:12:23;;;;;;;;;;;;;;;6.75;100.00;103758.72;2107473;28;20081;-68
2021/12/17 01:13:24;;;;;;;35.58;22.95;;;;;;;6.70;100.00;103753.41;2107030;28;19957;-68
2021/12/17 01:14:28;;;;;;;41.58;24.67;;;;;;;6.70;100.00;103756.91;2107046;28;20032;-69
2021/12/17 01:15:28;;;;;;;37.05;26.35;;;;;;;6.68;100.00;103753.38;2106949;28;20051;-69
2021/12/17 01:16:29;;;;;;;40.65;27.95;;;;;;;6.66;100.00;103757.69;2097856;28;20028;-69
2021/12/17 01:17:31;;;;;;;40.90;27.53;;;;;;;6.66;100.00;103749.91;2097844;28;20027;-68
2021/12/17 01:20:23;;;;;;;41.80;25.05;;;;;;;6.68;100.00;103749.94;2080058;28;20118;-69
2021/12/17 01:22:50;;;;;;;35.93;25.60;;;;;;;6.67;100.00;103751.63;2106909;28;20123;-67
2021/12/17 01:25:17;;;;;;;40.15;25.92;;;;;;;6.72;100.00;103749.16;2106856;28;20035;-68
2021/12/17 01:35:42;;;;;;;40.10;24.25;;;;;;;6.68;100.00;103757.72;2106799;28;20028;-68
2021/12/17 01:36:42;;;;;;;42.45;27.05;;;;;;;6.67;100.00;103755.97;2097599;28;20059;-68
2021/12/17 01:40:45;;;;;;;39.00;26.48;;;;;;;6.67;100.00;103755.97;2106700;28;20024;-68
2021/12/17 01:42:29;;;;;;;40.00;26.08;;;;;;;6.67;100.00;103754.22;2106706;28;20077;-67
2021/12/17 01:43:38;;;;;;;40.87;23.57;;;;;;;6.69;100.00;103755.16;2106755;28;20473;-67
2021/12/17 01:44:41;;;;;;;41.38;25.17;;;;;;;6.69;100.00;103755.16;2106629;28;20023;-68
2021/12/17 01:45:42;;;;;;;42.17;26.00;;;;;;;6.72;100.00;103759.53;2106686;28;20073;-67
2021/12/17 01:46:45;;;;;;;41.03;27.08;;;;;;;6.73;100.00;103756.09;2097609;28;20532;-67
2021/12/17 01:47:46;;;;;;;38.28;25.13;;;;;;;6.72;100.00;103753.44;2098057;28;20104;-68
2021/12/17 01:49:21;;;;;;;38.17;25.80;;;;;;;6.73;100.00;103757.78;2106594;28;20024;-68
2021/12/17 01:56:59;;;;;;;43.20;26.15;;;;;;;6.67;100.00;103751.63;2106691;28;20107;-68
2021/12/17 01:59:31;;;;;;;43.22;25.88;;;;;;;6.69;100.00;103747.38;2106690;28;20052;-67
2021/12/17 02:00:37;;;;;;;45.65;25.92;;;;;;;6.70;100.00;103754.31;2106717;28;20023;-68
2021/12/17 02:01:37;;;;;;;40.55;25.38;;;;;;;6.72;100.00;103753.44;2106564;28;20012;-68
2021/12/17 02:02:44;;;;;;;37.40;24.57;;;;;;;6.72;100.00;103754.34;2106577;28;20031;-68
2021/12/17 02:03:44;;;;;;;39.90;24.95;;;;;;;6.72;100.00;103756.03;2106521;28;20294;-67
2021/12/17 02:04:45;;;;;;;40.00;26.07;;;;;;;6.70;100.00;103754.31;2106573;28;20538;-68
2021/12/17 02:05:46;;;;;;;45.35;27.85;;;;;;;6.70;100.00;103756.00;2106559;28;20019;-68
2021/12/17 02:06:46;;;;;;;43.35;25.42;;;;;;;6.68;100.00;103750.78;2097546;28;20021;-68
2021/12/17 02:07:49;;;;;;;43.97;25.73;;;;;;;6.69;100.00;103752.56;2097631;28;20095;-67
2021/12/17 02:08:51;;;;;;;45.45;27.70;;;;;;;6.70;100.00;103746.50;2106514;28;20016;-68
2021/12/17 02:10:30;;;;;;;40.85;27.00;;;;;;;6.72;100.00;103753.44;2097503;28;20025;-68
2021/12/17 02:28:58;;;;;;;46.65;26.45;;;;;;;6.76;100.00;103756.16;2105617;28;20028;-68
2021/12/17 02:31:14;;;;;;;48.63;26.30;;;;;;;6.78;100.00;103754.44;2105641;28;20440;-67
2021/12/17 02:32:17;;;;;;;46.80;26.42;;;;;;;6.78;100.00;103758.78;2106328;28;20028;-67
2021/12/17 02:33:18;;;;;;;49.70;28.75;;;;;;;6.78;100.00;103758.78;2106516;28;20035;-67
2021/12/17 02:35:43;;;;;;;46.70;24.45;;;;;;;6.77;100.00;103762.22;2109251;28;19908;-68
2021/12/17 02:36:42;;;;;;;51.22;26.25;;;;;;;6.77;100.00;103770.00;2105926;28;20036;-68
2021/12/17 02:37:45;;;;;;;50.08;25.77;;;;;;;6.75;100.00;103758.72;2097371;28;20033;-68
2021/12/17 02:38:46;;;;;;;47.70;24.65;;;;;;;6.75;100.00;103759.59;2097509;28;20024;-68
2021/12/17 02:45:32;;;;;;;53.83;27.55;;;;;;;6.78;100.00;103770.03;2106445;28;20036;-68
2021/12/17 02:46:28;;;;;;;63.10;28.75;;;;;;;6.78;100.00;103764.81;2107941;28;20032;-68
2021/12/17 02:47:28;;;;;;;59.60;27.97;;;;;;;6.77;100.00;103763.09;2108155;28;20469;-69
2021/12/17 02:48:32;;;;;;;60.17;26.90;;;;;;;6.78;100.00;103764.81;2098954;28;20127;-69
2021/12/17 02:49:33;;;;;;;59.03;28.88;;;;;;;6.78;100.00;103761.38;2090914;28;20169;-69
2021/12/17 02:50:36;;;;;;;64.97;29.50;;;;;;;6.79;100.00;103760.53;2090665;28;20025;-69
2021/12/17 02:51:36;;;;;;;57.28;28.08;;;;;;;6.80;100.00;103754.47;2099326;28;20074;-68
2021/12/17 02:52:38;;;;;;;55.20;26.60;;;;;;;6.81;100.00;103756.25;2108052;28;20528;-69
2021/12/17 02:53:39;;;;;;;61.42;29.27;;;;;;;6.83;100.00;103759.75;2098894;28;20016;-68
2021/12/17 02:54:39;;;;;;;65.95;30.50;;;;;;;6.86;100.00;103759.81;2099013;28;20062;-68
2021/12/17 02:55:50;;;;;;;61.63;28.08;;;;;;;6.86;100.00;103756.31;2098837;28;20410;-68
2021/12/17 02:56:51;;;;;;;69.20;30.40;;;;;;;6.86;100.00;103754.63;2100178;28;20074;-67
2021/12/17 02:57:51;;;;;;;60.28;28.25;;;;;;;6.87;100.00;103756.34;2107411;28;20077;-68
2021/12/17 02:58:53;;;;;;;64.97;28.50;;;;;;;6.87;100.00;103753.75;2107929;28;20027;-67
2021/12/17 02:59:54;;;;;;;65.97;30.30;;;;;;;6.89;100.00;103751.19;2107910;28;20035;-68
2021/12/17 03:00:55;;;;;;;70.47;30.40;;;;;;;6.87;100.00;103743.38;2107930;28;20028;-67
2021/12/17 03:01:56;;;;;;;64.80;29.92;;;;;;;6.88;100.00;103752.91;2107896;28;20028;-68
2021/12/17 03:02:58;;;;;;;;;;;;;;;6.91;100.00;103745.19;2108305;28;20504;-69
2021/12/17 03:03:58;;;;;;;67.55;28.05;;;;;;;6.89;100.00;103746.91;2098904;28;19908;-68
2021/12/17 03:04:59;;;;;;;68.82;30.08;;;;;;;6.90;100.00;103748.63;2098960;28;20025;-68
2021/12/17 03:06:00;;;;;;;69.90;31.67;;;;;;;6.90;100.00;103753.84;2107292;28;20071;-68
2021/12/17 03:07:00;;;;;;;69.05;28.85;;;;;;;6.90;100.00;103753.84;2107337;28;20056;-69
2021/12/17 03:08:01;;;;;;;69.82;29.92;;;;;;;6.90;100.00;103748.63;2107879;28;20019;-69
2021/12/17 03:09:01;;;;;;;73.93;31.67;;;;;;;6.90;100.00;103748.63;2107947;28;20035;-69
2021/12/17 03:10:04;;;;;;;63.70;30.27;;;;;;;6.91;100.00;103758.16;2107808;28;20035;-69
2021/12/17 03:11:05;;;;;;;69.35;31.27;;;;;;;6.92;100.00;103751.28;2107885;28;20081;-68
2021/12/17 03:12:09;;;;;;;68.72;29.90;;;;;;;6.93;100.00;103760.81;2098704;28;20424;-69
2021/12/17 03:13:11;;;;;;;77.45;31.33;;;;;;;6.94;100.00;103746.97;2099249;28;20024;-68
2021/12/17 03:14:11;;;;;;;76.35;31.80;;;;;;;6.95;100.00;103756.53;2108019;28;20059;-69
2021/12/17 03:16:55;;;;;;;80.75;32.05;;;;;;;6.92;100.00;103752.13;2107910;28;20071;-68
2021/12/17 03:19:03;;;;;;;85.95;32.17;;;;;;;6.90;100.00;103752.94;2107901;28;20385;-68
2021/12/17 03:24:08;;;;;;;69.13;28.70;;;;;;;6.91;100.00;103773.75;2107768;28;20028;-69
2021/12/17 03:25:08;;;;;;;72.13;29.63;;;;;;;6.88;100.00;103768.47;2098669;28;20024;-69
2021/12/17 03:26:24;;;;;;;67.63;27.17;;;;;;;6.87;100.00;103764.16;2098673;28;20206;-69
2021/12/17 03:27:25;;;;;;;72.28;28.13;;;;;;;6.86;100.00;103772.78;2107561;28;20027;-69
2021/12/17 03:28:26;;;;;;;70.80;29.90;;;;;;;6.88;100.00;103763.28;2107722;28;20059;-68
2021/12/17 03:29:26;;;;;;;68.25;28.70;;;;;;;6.87;100.00;103771.94;2107523;28;20028;-69
2021/12/17 03:30:27;;;;;;;85.13;32.37;;;;;;;6.88;100.00;103771.09;2098573;28;20073;-67
2021/12/17 03:31:27;;;;;;;71.77;27.47;;;;;;;6.89;100.00;103764.19;2098704;28;20458;-68
2021/12/17 03:32:27;;;;;;;75.27;29.53;;;;;;;6.90;100.00;103773.72;2098699;28;20105;-68
2021/12/17 03:33:28;;;;;;;88.20;32.60;;;;;;;6.91;100.00;103776.34;2098743;28;20548;-68
2021/12/17 03:34:28;;;;;;;75.67;29.90;;;;;;;6.90;100.00;103779.78;2098546;28;20040;-68
2021/12/17 03:35:28;;;;;;;81.73;29.97;;;;;;;6.87;100.00;103771.94;2098722;28;20312;-67
2021/12/17 03:36:29;;;;;;;82.43;31.00;;;;;;;6.86;100.00;103771.91;2106959;28;20026;-68
2021/12/17 03:37:29;;;;;;;73.43;28.40;;;;;;;6.85;100.00;103773.63;2107057;28;20028;-69
2021/12/17 03:38:29;;;;;;;71.83;27.50;;;;;;;6.87;100.00;103773.69;2107662;28;20028;-69
2021/12/17 03:39:30;;;;;;;78.97;30.13;;;;;;;6.87;100.00;103773.69;2107595;28;20107;-68
2021/12/17 03:40:32;;;;;;;75.97;28.13;;;;;;;6.86;100.00;103770.19;2107590;28;20020;-68
2021/12/17 03:41:37;;;;;;;83.25;31.20;;;;;;;6.87;100.00;103768.47;2098474;28;20056;-68
2021/12/17 03:42:38;;;;;;;78.65;29.00;;;;;;;6.87;100.00;103764.16;2099115;28;20012;-68
2021/12/17 03:43:39;;;;;;;79.22;29.15;;;;;;;6.87;100.00;103761.56;2107597;28;20059;-69
2021/12/17 03:44:39;;;;;;;81.87;28.03;;;;;;;6.88;100.00;103759.84;2098548;28;20036;-69
2021/12/17 03:45:41;;;;;;;79.23;30.43;;;;;;;6.83;100.00;103764.94;2098639;28;20302;-68
2021/12/17 03:46:41;;;;;;;84.22;32.45;;;;;;;6.83;100.00;103762.34;2107545;28;20024;-67
2021/12/17 03:47:42;;;;;;;72.87;27.63;;;;;;;6.82;100.00;103765.78;2107541;28;20028;-68
2021/12/17 03:48:43;;;;;;;85.32;30.65;;;;;;;6.81;100.00;103769.22;2098527;28;20035;-69
2021/12/17 03:49:43;;;;;;;75.88;26.73;;;;;;;6.80;100.00;103764.88;2098575;28;20101;-68
2021/12/17 03:50:44;;;;;;;72.68;28.45;;;;;;;6.82;100.00;103765.78;2107577;28;20073;-69
2021/12/17 03:51:51;;;;;;;74.60;27.53;;;;;;;6.79;100.00;103771.78;2107564;28;20031;-69
2021/12/17 03:52:51;;;;;;;77.47;28.35;;;;;;;6.82;100.00;103760.59;2107527;28;20093;-69
2021/12/17 03:53:54;;;;;;;82.90;27.87;;;;;;;6.83;100.00;103772.72;2107505;28;20038;-69
2021/12/17 03:54:54;;;;;;;71.63;26.40;;;;;;;6.82;100.00;103751.06;2107445;28;20046;-69
2021/12/17 03:55:54;;;;;;;81.70;27.10;;;;;;;6.83;100.00;103767.53;2098505;28;20560;-68
2021/12/17 03:56:55;;;;;;;82.53;29.40;;;;;;;6.80;100.00;103768.34;2098400;28;20046;-68
2021/12/17 03:57:59;;;;;;;68.83;26.97;;;;;;;6.79;100.00;103763.13;2098469;28;20045;-68
2021/12/17 03:58:59;;;;;;;74.28;27.52;;;;;;;6.78;100.00;103759.63;2090605;28;20025;-69
2021/12/17 03:59:59;;;;;;;78.33;28.00;;;;;;;6.79;100.00;103766.59;2098505;28;20121;-70
2021/12/17 04:00:59;;;;;;;72.00;27.00;;;;;;;6.81;100.00;103769.22;2107442;28;20035;-69
2021/12/17 04:02:00;;;;;;;72.43;24.87;;;;;;;6.79;100.00;103770.91;2107515;28;20028;-68
2021/12/17 04:03:02;;;;;;;63.70;24.70;;;;;;;6.80;100.00;103772.66;2107497;28;20059;-68
2021/12/17 04:04:02;;;;;;;75.72;25.30;;;;;;;6.78;100.00;103770.03;2107357;28;20046;-69
2021/12/17 04:05:04;;;;;;;73.10;28.30;;;;;;;6.77;100.00;103770.00;2107448;28;20058;-69
2021/12/17 04:06:04;;;;;;;80.32;28.33;;;;;;;6.77;100.00;103763.09;2107436;28;20578;-68
2021/12/17 04:07:04;;;;;;;74.20;25.73;;;;;;;6.78;100.00;103758.78;2098381;28;20171;-69
2021/12/17 04:08:05;;;;;;;73.17;25.07;;;;;;;6.77;100.00;103767.41;2098500;28;20037;-69
2021/12/17 04:09:05;;;;;;;73.13;27.87;;;;;;;6.77;100.00;103767.41;2106699;28;20526;-68
2021/12/17 04:10:06;;;;;;;71.63;27.77;;;;;;;6.76;100.00;103756.16;2106773;28;20024;-68
2021/12/17 04:11:08;;;;;;;78.67;28.20;;;;;;;6.77;100.00;103762.22;2106787;28;20281;-68
2021/12/17 04:12:13;;;;;;;80.15;29.33;;;;;;;6.77;100.00;103764.81;2106836;28;20024;-67
2021/12/17 04:13:27;;;;;;;81.95;29.27;;;;;;;6.76;100.00;103765.66;2107340;28;20121;-68
2021/12/17 04:14:49;;;;;;;83.75;28.77;;;;;;;6.75;100.00;103763.91;2106725;28;20016;-69
2021/12/17 04:16:02;;;;;;;85.28;28.05;;;;;;;6.76;100.00;103763.03;2106391;28;20549;-68
2021/12/17 04:17:05;;;;;;;73.03;25.92;;;;;;;6.76;100.00;103756.16;2107322;28;20161;-68
2021/12/17 04:18:07;;;;;;;77.30;27.08;;;;;;;6.76;100.00;103761.34;2107442;28;20481;-68
2021/12/17 04:19:07;;;;;;;79.03;27.00;;;;;;;6.76;100.00;103761.34;2107362;28;20028;-67
2021/12/17 04:20:08;;;;;;;75.57;26.30;;;;;;;6.75;100.00;103759.59;2098244;28;20146;-69
2021/12/17 04:21:15;;;;;;;81.60;27.98;;;;;;;6.74;100.00;103757.81;2098415;28;20031;-68
2021/12/17 04:22:15;;;;;;;77.95;28.52;;;;;;;6.70;100.00;103751.72;2107299;28;20371;-68
2021/12/17 04:23:16;;;;;;;83.30;28.30;;;;;;;6.71;100.00;103752.59;2107318;28;20028;-68
2021/12/17 04:24:16;;;;;;;74.80;28.00;;;;;;;6.72;100.00;103750.84;2098299;28;20028;-68
2021/12/17 04:25:16;;;;;;;72.70;26.97;;;;;;;6.74;100.00;103760.41;2098286;28;20029;-68
2021/12/17 04:26:17;;;;;;;77.93;27.60;;;;;;;6.75;100.00;103758.72;2106476;28;20044;-68
2021/12/17 04:27:18;;;;;;;84.88;28.08;;;;;;;6.73;100.00;103765.56;2107232;28;20427;-67
2021/12/17 04:28:19;;;;;;;73.20;26.87;;;;;;;6.72;100.00;103758.63;2107155;28;20477;-68
2021/12/17 04:29:21;;;;;;;81.25;28.65;;;;;;;6.71;100.00;103760.38;2107178;28;20361;-67
2021/12/17 04:30:22;;;;;;;79.72;29.58;;;;;;;6.70;100.00;103749.09;2107202;28;20035;-67
2021/12/17 04:31:25;;;;;;;65.28;24.98;;;;;;;6.71;100.00;103752.59;2107310;28;20477;-68
2021/12/17 04:32:25;;;;;;;79.22;27.00;;;;;;;6.71;100.00;103757.78;2107196;28;20472;-68
2021/12/17 04:33:26;;;;;;;78.47;27.83;;;;;;;6.71;100.00;103752.59;2107221;28;20069;-68
2021/12/17 04:34:26;;;;;;;86.43;30.27;;;;;;;6.74;100.00;103752.63;2107211;28;20400;-68
2021/12/17 04:35:26;;;;;;;74.63;26.80;;;;;;;6.76;100.00;103766.53;2107225;28;20041;-69
2021/12/17 04:36:30;;;;;;;78.63;28.87;;;;;;;6.77;100.00;103762.22;2107162;28;20031;-69
2021/12/17 04:37:31;;;;;;;72.68;27.50;;;;;;;6.76;100.00;103763.94;2107151;28;20058;-68
2021/12/17 04:38:31;;;;;;;71.37;27.83;;;;;;;6.76;100.00;103760.44;2107136;28;20020;-69
2021/12/17 04:39:31;;;;;;;71.37;25.33;;;;;;;6.75;100.00;103764.78;2098176;28;20043;-69
2021/12/17 04:40:32;;;;;;;82.80;30.10;;;;;;;6.76;100.00;103755.25;2098200;28;20424;-68
2021/12/17 04:44:03;;;;;;;69.07;25.83;;;;;;;6.71;100.00;103760.38;2107173;28;20020;-68
2021/12/17 04:45:04;;;;;;;79.18;28.42;;;;;;;6.69;100.00;103749.06;2107145;28;20019;-68
2021/12/17 04:46:31;;;;;;;85.05;29.05;;;;;;;6.67;100.00;103751.63;2107075;28;20466;-68
2021/12/17 04:58:00;;;;;;;67.32;24.45;;;;;;;6.75;100.00;103749.22;2106990;28;20248;-69
2021/12/17 04:59:02;;;;;;;83.13;29.85;;;;;;;6.76;100.00;103757.84;2106953;28;20034;-69
2021/12/17 05:00:13;;;;;;;86.38;31.40;;;;;;;6.78;100.00;103757.03;2106993;28;20507;-68
2021/12/17 05:01:15;;;;;;;90.05;29.27;;;;;;;6.77;100.00;103751.84;2107022;28;20040;-69
2021/12/17 05:02:17;;;;;;;83.95;28.92;;;;;;;6.76;100.00;103752.66;2097893;28;20032;-69
2021/12/17 05:03:17;;;;;;;80.25;27.42;;;;;;;6.76;100.00;103758.75;2089718;28;20394;-68
2021/12/17 05:04:19;;;;;;;80.23;28.83;;;;;;;6.77;100.00;103754.44;2097845;28;20032;-69
2021/12/17 05:05:25;;;;;;;99.18;31.60;;;;;;;6.77;100.00;103762.22;2089739;28;20072;-68
2021/12/17 05:06:29;;;;;;;82.22;29.88;;;;;;;6.77;100.00;103751.84;2098778;28;20028;-69
2021/12/17 05:07:29;;;;;;;87.57;31.77;;;;;;;6.78;100.00;103758.78;2106953;28;20052;-68
2021/12/17 05:08:30;;;;;;;82.40;28.50;;;;;;;6.76;100.00;103755.25;2106511;28;20488;-67
2021/12/17 05:09:39;;;;;;;79.88;28.38;;;;;;;6.77;100.00;103755.28;2106772;28;20020;-67
2021/12/17 05:11:12;;;;;;;83.47;28.60;;;;;;;6.76;100.00;103757.84;2106831;28;20024;-68
2021/12/17 05:18:35;;;;;;;88.00;28.45;;;;;;;6.77;100.00;103757.88;2106894;28;20067;-68
2021/12/17 05:19:50;;;;;;;92.88;30.48;;;;;;;6.75;100.00;103758.72;2106729;28;20024;-68
2021/12/17 05:20:57;;;;;;;89.43;28.27;;;;;;;6.75;100.00;103759.59;2106792;28;20063;-69
2021/12/17 05:21:58;;;;;;;80.88;28.65;;;;;;;6.75;100.00;103753.53;2097748;28;20055;-68
2021/12/17 05:22:59;;;;;;;80.82;26.85;;;;;;;6.76;100.00;103755.25;2097920;28;20024;-68
2021/12/17 05:24:00;;;;;;;87.72;28.58;;;;;;;6.78;100.00;103761.38;2106798;28;20024;-67
2021/12/17 05:25:00;;;;;;;79.87;27.70;;;;;;;6.77;100.00;103757.03;2106774;28;20388;-68
2021/12/17 05:26:04;;;;;;;75.93;28.07;;;;;;;6.78;100.00;103753.59;2106733;28;20052;-68
2021/12/17 05:27:04;;;;;;;83.78;27.55;;;;;;;6.77;100.00;103762.22;2106841;28;20074;-68
2021/12/17 05:28:05;;;;;;;77.28;26.90;;;;;;;6.79;100.00;103760.53;2106851;28;20028;-69
2021/12/17 05:29:05;;;;;;;74.32;25.90;;;;;;;6.79;100.00;103761.41;2106806;28;20517;-68
2021/12/17 05:30:06;;;;;;;78.77;26.97;;;;;;;6.79;100.00;103757.94;2097706;28;20028;-69
2021/12/17 05:31:07;;;;;;;78.50;26.58;;;;;;;6.79;100.00;103765.72;2097807;28;20020;-67
2021/12/17 05:32:08;;;;;;;69.57;26.85;;;;;;;6.79;100.00;103765.72;2106754;28;20024;-68
2021/12/17 05:33:08;;;;;;;82.25;27.33;;;;;;;6.79;100.00;103766.59;2097772;28;20574;-69
2021/12/17 05:34:08;;;;;;;77.97;27.47;;;;;;;6.78;100.00;103758.78;2097780;28;20025;-68
2021/12/17 05:35:09;;;;;;;80.67;27.67;;;;;;;6.79;100.00;103765.72;2106761;28;20079;-69
2021/12/17 05:36:09;;;;;;;79.07;26.93;;;;;;;6.79;100.00;103765.72;2097704;28;20497;-69
2021/12/17 05:37:09;;;;;;;74.07;25.40;;;;;;;6.78;100.00;103767.41;2097845;28;20028;-69
2021/12/17 05:38:11;;;;;;;78.37;27.90;;;;;;;6.78;100.00;103771.75;2106646;28;20027;-69
2021/12/17 05:39:11;;;;;;;71.32;25.73;;;;;;;6.78;100.00;103771.75;2097702;28;20106;-69
2021/12/17 05:40:12;;;;;;;70.80;27.00;;;;;;;6.78;100.00;103775.22;2097757;28;20474;-68
2021/12/17 05:41:12;;;;;;;78.45;26.60;;;;;;;6.79;100.00;103776.09;2097683;28;20020;-68
2021/12/17 05:42:12;;;;;;;73.17;28.17;;;;;;;6.78;100.00;103769.16;2097771;28;20025;-68
2021/12/17 05:43:15;;;;;;;69.53;24.63;;;;;;;6.79;100.00;103776.09;2106915;28;20479;-67
2021/12/17 05:44:17;;;;;;;81.22;26.25;;;;;;;6.78;100.00;103772.63;2106795;28;20217;-67
2021/12/17 05:45:32;;;;;;;61.95;23.17;;;;;;;6.79;100.00;103776.09;2106721;28;20016;-68
2021/12/17 05:46:49;;;;;;;68.82;24.52;;;;;;;6.77;100.00;103770.88;2097705;28;20038;-68
2021/12/17 05:47:50;;;;;;;73.90;25.73;;;;;;;6.78;100.00;103766.56;2100013;28;20060;-69
2021/12/17 05:48:50;;;;;;;77.90;25.00;;;;;;;6.78;100.00;103766.56;2106724;28;20472;-69
2021/12/17 05:49:50;;;;;;;74.20;25.30;;;;;;;6.76;100.00;103765.66;2106695;28;20481;-69
2021/12/17 05:50:55;;;;;;;68.67;25.00;;;;;;;6.76;100.00;103766.53;2106721;28;20023;-68
2021/12/17 05:51:55;;;;;;;61.33;22.35;;;;;;;6.75;100.00;103763.91;2106638;28;20032;-69
2021/12/17 05:52:56;;;;;;;66.43;22.57;;;;;;;6.76;100.00;103760.44;2106698;28;20048;-69
2021/12/17 05:53:56;;;;;;;71.57;23.63;;;;;;;6.77;100.00;103757.03;2106766;28;20051;-69
2021/12/17 05:54:56;;;;;;;67.57;22.10;;;;;;;6.77;100.00;103751.84;2106717;28;20342;-68
2021/12/17 05:55:57;;;;;;;69.07;24.67;;;;;;;6.74;100.00;103754.38;2106690;28;20027;-68
2021/12/17 05:56:57;;;;;;;62.75;23.13;;;;;;;6.75;100.00;103758.72;2106732;28;20100;-69
2021/12/17 05:57:58;;;;;;;65.73;21.63;;;;;;;6.76;100.00;103757.84;2097577;28;20446;-68
2021/12/17 05:58:58;;;;;;;70.60;23.13;;;;;;;6.76;100.00;103760.44;2097719;28;20075;-69
2021/12/17 05:59:58;;;;;;;66.07;22.60;;;;;;;6.76;100.00;103765.66;2105949;28;20016;-68
2021/12/17 06:00:59;;;;;;;66.00;22.27;;;;;;;6.76;100.00;103765.66;2097679;28;20080;-68
2021/12/17 06:02:01;;;;;;;70.87;24.07;;;;;;;6.75;100.00;103769.09;2097664;28;20055;-68
2021/12/17 06:03:02;;;;;;;62.90;21.38;;;;;;;6.75;100.00;103769.97;2097675;28;20029;-69
2021/12/17 06:04:04;;;;;;;62.00;22.85;;;;;;;6.76;100.00;103776.03;2097963;28;20032;-69
2021/12/17 06:05:04;;;;;;;54.92;20.20;;;;;;;6.76;100.00;103770.84;2106770;28;20125;-69
2021/12/17 06:06:05;;;;;;;68.72;23.38;;;;;;;6.74;100.00;103768.19;2097813;28;20226;-69
2021/12/17 06:07:05;;;;;;;61.60;21.00;;;;;;;6.75;100.00;103769.09;2097964;28;20505;-68
2021/12/17 06:08:06;;;;;;;62.43;20.10;;;;;;;6.75;100.00;103774.28;2106806;28;20488;-68
2021/12/17 06:09:08;;;;;;;60.10;21.20;;;;;;;6.70;100.00;103771.59;2106790;28;20099;-70
2021/12/17 06:10:11;;;;;;;57.97;20.67;;;;;;;6.70;100.00;103777.66;2106722;28;20028;-68
2021/12/17 06:11:11;;;;;;;65.82;21.35;;;;;;;6.69;100.00;103781.09;2106802;28;20490;-69
2021/12/17 06:12:12;;;;;;;58.13;19.33;;;;;;;6.69;100.00;103775.91;2097786;28;20028;-68
2021/12/17 06:13:12;;;;;;;54.77;18.87;;;;;;;6.72;100.00;103779.41;2097714;28;20033;-69
2021/12/17 06:14:12;;;;;;;65.23;20.83;;;;;;;6.70;100.00;103780.25;2106521;28;20043;-68
2021/12/17 06:15:15;;;;;;;57.70;20.23;;;;;;;6.72;100.00;103779.41;2106752;28;20035;-68
2021/12/17 06:16:16;;;;;;;54.08;20.27;;;;;;;6.71;100.00;103778.53;2106735;28;20016;-69
2021/12/17 06:17:16;;;;;;;64.33;20.50;;;;;;;6.71;100.00;103778.53;2106644;28;20027;-68
2021/12/17 06:18:17;;;;;;;57.17;18.33;;;;;;;6.72;100.00;103776.81;2106710;28;20028;-68
2021/12/17 06:19:19;;;;;;;59.33;19.30;;;;;;;6.72;100.00;103774.22;2097766;28;20033;-67
2021/12/17 06:20:22;;;;;;;55.55;18.95;;;;;;;6.70;100.00;103777.66;2097964;28;20020;-68
2021/12/17 06:21:22;;;;;;;48.28;17.48;;;;;;;6.70;100.00;103781.97;2108178;28;20039;-68
2021/12/17 06:22:22;;;;;;;51.60;18.90;;;;;;;6.69;100.00;103770.72;2108483;28;20074;-68
2021/12/17 06:23:23;;;;;;;49.93;18.30;;;;;;;6.70;100.00;103782.84;2099455;28;20408;-68
2021/12/17 06:24:23;;;;;;;48.63;17.40;;;;;;;6.68;100.00;103781.94;2099524;28;20060;-68
2021/12/17 06:25:23;;;;;;;49.40;15.47;;;;;;;6.69;100.00;103783.69;2107750;28;20036;-67
2021/12/17 06:26:24;;;;;;;46.67;18.10;;;;;;;6.68;100.00;103781.94;2107650;28;20048;-68
2021/12/17 06:27:24;;;;;;;52.23;17.10;;;;;;;6.68;100.00;103792.31;2107781;28;20063;-68
2021/12/17 06:28:24;;;;;;;45.60;16.47;;;;;;;6.68;100.00;103787.13;2108169;28;20028;-68
2021/12/17 06:29:25;;;;;;;51.30;17.83;;;;;;;6.67;100.00;103797.50;2108050;28;20301;-68
2021/12/17 06:30:25;;;;;;;49.63;17.97;;;;;;;6.68;100.00;103792.31;2108228;28;20065;-68
2021/12/17 06:31:27;;;;;;;54.50;17.83;;;;;;;6.69;100.00;103791.50;2099192;28;20052;-68